sensor_id;sensor_type;location;lat;lon;timestamp;pressure;altitude;pressure_sealevel;temperature;humidity
54900;BME280;40801;41.924;25.562;2024-01-30T00:02:16;101716.13;;;1.47;57.42
54900;BME280;40801;41.924;25.562;2024-01-30T00:04:42;101707.13;;;1.48;57.60
54900;BME280;40801;41.924;25.562;2024-01-30T00:07:07;101708.34;;;1.46;57.41
54900;BME280;40801;41.924;25.562;2024-01-30T00:09:33;101708.06;;;1.41;58.30
54900;BME280;40801;41.924;25.562;2024-01-30T00:11:59;101706.03;;;1.43;58.05
54900;BME280;40801;41.924;25.562;2024-01-30T00:14:24;101708.88;;;1.41;57.83
54900;BME280;40801;41.924;25.562;2024-01-30T00:16:50;101700.25;;;1.39;57.75
54900;BME280;40801;41.924;25.562;2024-01-30T00:19:16;101699.38;;;1.32;58.28
54900;BME280;40801;41.924;25.562;2024-01-30T00:21:41;101697.91;;;1.30;58.92
54900;BME280;40801;41.924;25.562;2024-01-30T00:24:07;101701.41;;;1.30;58.38
54900;BME280;40801;41.924;25.562;2024-01-30T00:26:32;101697.72;;;1.31;58.76
54900;BME280;40801;41.924;25.562;2024-01-30T00:28:58;101709.63;;;1.35;58.09
54900;BME280;40801;41.924;25.562;2024-01-30T00:31:24;101703.69;;;1.33;58.00
54900;BME280;40801;41.924;25.562;2024-01-30T00:33:49;101700.06;;;1.05;59.69
54900;BME280;40801;41.924;25.562;2024-01-30T00:36:15;101704.91;;;1.16;59.00
54900;BME280;40801;41.924;25.562;2024-01-30T00:38:40;101708.75;;;1.13;58.67
54900;BME280;40801;41.924;25.562;2024-01-30T00:41:07;101701.78;;;1.12;58.66
54900;BME280;40801;41.924;25.562;2024-01-30T00:43:33;101701.06;;;1.18;58.20
54900;BME280;40801;41.924;25.562;2024-01-30T00:45:59;101701.50;;;1.22;58.30
54900;BME280;40801;41.924;25.562;2024-01-30T00:48:24;101703.97;;;1.23;58.05
54900;BME280;40801;41.924;25.562;2024-01-30T00:50:49;101698.03;;;1.21;58.05
54900;BME280;40801;41.924;25.562;2024-01-30T00:53:15;101704.44;;;1.12;58.60
54900;BME280;40801;41.924;25.562;2024-01-30T00:55:40;101698.94;;;1.14;58.30
54900;BME280;40801;41.924;25.562;2024-01-30T00:58:06;101711.31;;;1.21;57.84
54900;BME280;40801;41.924;25.562;2024-01-30T01:00:32;101706.56;;;1.17;58.65
54900;BME280;40801;41.924;25.562;2024-01-30T01:03:01;101709.13;;;1.10;59.21
54900;BME280;40801;41.924;25.562;2024-01-30T01:05:26;101708.09;;;1.26;58.69
54900;BME280;40801;41.924;25.562;2024-01-30T01:07:52;101700.25;;;1.18;59.17
54900;BME280;40801;41.924;25.562;2024-01-30T01:10:18;101697.53;;;1.33;58.72
54900;BME280;40801;41.924;25.562;2024-01-30T01:12:44;101696.59;;;1.40;58.26
54900;BME280;40801;41.924;25.562;2024-01-30T01:15:10;101696.63;;;1.62;57.52
54900;BME280;40801;41.924;25.562;2024-01-30T01:17:36;101690.16;;;1.71;57.24
54900;BME280;40801;41.924;25.562;2024-01-30T01:20:02;101691.28;;;1.76;57.25
54900;BME280;40801;41.924;25.562;2024-01-30T01:22:29;101686.69;;;1.92;57.17
54900;BME280;40801;41.924;25.562;2024-01-30T01:24:54;101686.34;;;2.01;56.51
54900;BME280;40801;41.924;25.562;2024-01-30T01:27:20;101689.00;;;2.01;56.86
54900;BME280;40801;41.924;25.562;2024-01-30T01:29:46;101696.25;;;2.07;56.74
54900;BME280;40801;41.924;25.562;2024-01-30T01:32:11;101691.75;;;2.08;56.27
54900;BME280;40801;41.924;25.562;2024-01-30T01:34:37;101688.91;;;2.09;56.10
54900;BME280;40801;41.924;25.562;2024-01-30T01:37:02;101690.25;;;1.77;56.88
54900;BME280;40801;41.924;25.562;2024-01-30T01:39:28;101689.00;;;2.01;56.59
54900;BME280;40801;41.924;25.562;2024-01-30T01:41:53;101690.19;;;2.20;56.05
54900;BME280;40801;41.924;25.562;2024-01-30T01:44:18;101683.03;;;2.21;55.72
54900;BME280;40801;41.924;25.562;2024-01-30T01:46:44;101686.53;;;2.21;56.09
54900;BME280;40801;41.924;25.562;2024-01-30T01:49:10;101684.25;;;2.18;56.13
54900;BME280;40801;41.924;25.562;2024-01-30T01:51:36;101687.41;;;2.28;55.81
54900;BME280;40801;41.924;25.562;2024-01-30T01:54:05;101687.69;;;2.40;54.90
54900;BME280;40801;41.924;25.562;2024-01-30T01:56:33;101678.59;;;2.28;55.44
54900;BME280;40801;41.924;25.562;2024-01-30T01:59:00;101687.84;;;2.32;55.53
54900;BME280;40801;41.924;25.562;2024-01-30T02:01:31;101692.00;;;2.41;55.40
54900;BME280;40801;41.924;25.562;2024-01-30T02:03:58;101682.81;;;2.43;55.14
54900;BME280;40801;41.924;25.562;2024-01-30T02:06:24;101679.78;;;2.53;54.80
54900;BME280;40801;41.924;25.562;2024-01-30T02:08:49;101673.06;;;2.57;54.55
54900;BME280;40801;41.924;25.562;2024-01-30T02:11:15;101673.13;;;2.64;54.51
54900;BME280;40801;41.924;25.562;2024-01-30T02:13:42;101681.97;;;2.43;54.74
54900;BME280;40801;41.924;25.562;2024-01-30T02:16:07;101684.41;;;2.66;54.43
54900;BME280;40801;41.924;25.562;2024-01-30T02:18:32;101681.66;;;2.59;54.39
54900;BME280;40801;41.924;25.562;2024-01-30T02:20:59;101678.56;;;2.56;53.81
54900;BME280;40801;41.924;25.562;2024-01-30T02:23:27;101680.09;;;2.65;54.05
54900;BME280;40801;41.924;25.562;2024-01-30T02:25:52;101682.69;;;2.58;53.98
54900;BME280;40801;41.924;25.562;2024-01-30T02:28:19;101679.72;;;2.74;53.57
54900;BME280;40801;41.924;25.562;2024-01-30T02:30:45;101683.03;;;2.83;53.18
54900;BME280;40801;41.924;25.562;2024-01-30T02:33:11;101678.94;;;2.87;52.63
54900;BME280;40801;41.924;25.562;2024-01-30T02:35:36;101676.84;;;2.76;53.17
54900;BME280;40801;41.924;25.562;2024-01-30T02:38:02;101671.94;;;2.79;52.58
54900;BME280;40801;41.924;25.562;2024-01-30T02:40:27;101683.00;;;2.76;53.39
54900;BME280;40801;41.924;25.562;2024-01-30T02:42:53;101676.63;;;2.71;52.84
54900;BME280;40801;41.924;25.562;2024-01-30T02:45:18;101675.56;;;2.65;53.55
54900;BME280;40801;41.924;25.562;2024-01-30T02:47:44;101673.38;;;2.75;52.48
54900;BME280;40801;41.924;25.562;2024-01-30T02:50:09;101675.22;;;2.75;53.08
54900;BME280;40801;41.924;25.562;2024-01-30T02:52:35;101671.50;;;2.69;52.86
54900;BME280;40801;41.924;25.562;2024-01-30T02:55:01;101670.06;;;2.67;52.27
54900;BME280;40801;41.924;25.562;2024-01-30T02:57:27;101671.50;;;2.69;52.85
54900;BME280;40801;41.924;25.562;2024-01-30T02:59:52;101680.81;;;2.52;53.36
54900;BME280;40801;41.924;25.562;2024-01-30T03:02:18;101680.28;;;2.63;52.88
54900;BME280;40801;41.924;25.562;2024-01-30T03:04:43;101681.63;;;2.53;53.28
54900;BME280;40801;41.924;25.562;2024-01-30T03:07:09;101675.81;;;2.36;53.44
54900;BME280;40801;41.924;25.562;2024-01-30T03:09:36;101676.63;;;2.36;53.11
54900;BME280;40801;41.924;25.562;2024-01-30T03:12:02;101678.16;;;2.52;52.87
54900;BME280;40801;41.924;25.562;2024-01-30T03:14:27;101670.38;;;2.57;52.10
54900;BME280;40801;41.924;25.562;2024-01-30T03:16:54;101672.28;;;2.63;52.33
54900;BME280;40801;41.924;25.562;2024-01-30T03:19:19;101677.31;;;2.52;53.04
54900;BME280;40801;41.924;25.562;2024-01-30T03:21:45;101667.69;;;2.51;52.69
54900;BME280;40801;41.924;25.562;2024-01-30T03:24:10;101662.72;;;2.41;52.76
54900;BME280;40801;41.924;25.562;2024-01-30T03:26:35;101675.66;;;2.44;52.60
54900;BME280;40801;41.924;25.562;2024-01-30T03:29:01;101664.59;;;2.19;53.38
54900;BME280;40801;41.924;25.562;2024-01-30T03:31:26;101671.09;;;2.38;52.66
54900;BME280;40801;41.924;25.562;2024-01-30T03:33:52;101663.31;;;2.36;53.46
54900;BME280;40801;41.924;25.562;2024-01-30T03:36:17;101672.56;;;2.40;53.02
54900;BME280;40801;41.924;25.562;2024-01-30T03:38:43;101662.72;;;2.41;52.69
54900;BME280;40801;41.924;25.562;2024-01-30T03:41:08;101664.88;;;2.31;53.47
54900;BME280;40801;41.924;25.562;2024-01-30T03:43:35;101658.81;;;2.37;53.06
54900;BME280;40801;41.924;25.562;2024-01-30T03:46:01;101658.38;;;2.33;53.04
54900;BME280;40801;41.924;25.562;2024-01-30T03:48:27;101659.00;;;2.35;53.04
54900;BME280;40801;41.924;25.562;2024-01-30T03:50:52;101654.09;;;2.39;52.79
54900;BME280;40801;41.924;25.562;2024-01-30T03:53:17;101655.16;;;2.44;52.84
54900;BME280;40801;41.924;25.562;2024-01-30T03:55:43;101661.59;;;2.29;52.76
54900;BME280;40801;41.924;25.562;2024-01-30T03:58:08;101649.19;;;2.36;52.23
54900;BME280;40801;41.924;25.562;2024-01-30T04:00:34;101655.41;;;2.49;52.38
54900;BME280;40801;41.924;25.562;2024-01-30T04:03:00;101654.22;;;2.31;52.95
54900;BME280;40801;41.924;25.562;2024-01-30T04:05:25;101639.88;;;2.25;52.73
54900;BME280;40801;41.924;25.562;2024-01-30T04:07:51;101642.59;;;2.32;53.08
54900;BME280;40801;41.924;25.562;2024-01-30T04:10:16;101642.66;;;2.45;52.49
54900;BME280;40801;41.924;25.562;2024-01-30T04:12:42;101641.28;;;2.21;53.84
54900;BME280;40801;41.924;25.562;2024-01-30T04:15:08;101638.09;;;2.32;53.40
54900;BME280;40801;41.924;25.562;2024-01-30T04:17:33;101646.44;;;2.29;53.02
54900;BME280;40801;41.924;25.562;2024-01-30T04:19:59;101641.88;;;2.51;53.12
54900;BME280;40801;41.924;25.562;2024-01-30T04:22:24;101651.88;;;2.42;52.40
54900;BME280;40801;41.924;25.562;2024-01-30T04:24:49;101648.59;;;2.40;53.21
54900;BME280;40801;41.924;25.562;2024-01-30T04:27:15;101650.66;;;2.45;53.31
54900;BME280;40801;41.924;25.562;2024-01-30T04:29:40;101655.16;;;2.44;52.97
54900;BME280;40801;41.924;25.562;2024-01-30T04:32:06;101652.69;;;2.43;53.43
54900;BME280;40801;41.924;25.562;2024-01-30T04:34:31;101651.13;;;2.27;53.80
54900;BME280;40801;41.924;25.562;2024-01-30T04:36:57;101650.69;;;2.52;53.51
54900;BME280;40801;41.924;25.562;2024-01-30T04:39:22;101648.38;;;2.42;53.10
54900;BME280;40801;41.924;25.562;2024-01-30T04:41:48;101655.84;;;2.60;53.13
54900;BME280;40801;41.924;25.562;2024-01-30T04:44:14;101658.78;;;2.65;53.11
54900;BME280;40801;41.924;25.562;2024-01-30T04:46:39;101658.41;;;2.74;52.91
54900;BME280;40801;41.924;25.562;2024-01-30T04:49:05;101655.91;;;2.66;52.96
54900;BME280;40801;41.924;25.562;2024-01-30T04:51:32;101651.09;;;2.48;53.75
54900;BME280;40801;41.924;25.562;2024-01-30T04:53:58;101662.31;;;2.44;54.19
54900;BME280;40801;41.924;25.562;2024-01-30T04:56:24;101667.66;;;2.44;53.85
54900;BME280;40801;41.924;25.562;2024-01-30T04:58:49;101664.41;;;2.48;53.83
54900;BME280;40801;41.924;25.562;2024-01-30T05:01:17;101663.69;;;2.61;52.91
54900;BME280;40801;41.924;25.562;2024-01-30T05:03:43;101661.28;;;2.73;53.52
54900;BME280;40801;41.924;25.562;2024-01-30T05:06:09;101667.22;;;2.75;53.08
54900;BME280;40801;41.924;25.562;2024-01-30T05:08:34;101669.00;;;2.61;54.00
54900;BME280;40801;41.924;25.562;2024-01-30T05:11:04;101674.75;;;2.65;53.43
54900;BME280;40801;41.924;25.562;2024-01-30T05:13:30;101671.53;;;2.76;53.05
54900;BME280;40801;41.924;25.562;2024-01-30T05:15:56;101672.31;;;2.70;53.16
54900;BME280;40801;41.924;25.562;2024-01-30T05:18:21;101676.53;;;2.58;53.49
54900;BME280;40801;41.924;25.562;2024-01-30T05:20:47;101679.09;;;2.72;53.44
54900;BME280;40801;41.924;25.562;2024-01-30T05:23:12;101675.00;;;2.76;53.32
54900;BME280;40801;41.924;25.562;2024-01-30T05:25:37;101673.97;;;2.71;53.42
54900;BME280;40801;41.924;25.562;2024-01-30T05:28:03;101669.72;;;2.83;53.38
54900;BME280;40801;41.924;25.562;2024-01-30T05:30:28;101680.34;;;2.76;53.11
54900;BME280;40801;41.924;25.562;2024-01-30T05:32:54;101672.69;;;2.60;54.11
54900;BME280;40801;41.924;25.562;2024-01-30T05:35:19;101675.59;;;2.72;53.68
54900;BME280;40801;41.924;25.562;2024-01-30T05:37:48;101663.94;;;2.73;53.58
54900;BME280;40801;41.924;25.562;2024-01-30T05:40:13;101670.75;;;2.82;53.92
54900;BME280;40801;41.924;25.562;2024-01-30T05:42:39;101681.38;;;2.75;53.53
54900;BME280;40801;41.924;25.562;2024-01-30T05:45:05;101679.56;;;2.83;53.73
54900;BME280;40801;41.924;25.562;2024-01-30T05:47:30;101686.38;;;2.92;53.53
54900;BME280;40801;41.924;25.562;2024-01-30T05:49:56;101685.91;;;2.82;53.63
54900;BME280;40801;41.924;25.562;2024-01-30T05:52:21;101686.09;;;2.80;54.34
54900;BME280;40801;41.924;25.562;2024-01-30T05:54:47;101674.81;;;2.78;54.10
54900;BME280;40801;41.924;25.562;2024-01-30T05:57:12;101670.66;;;2.62;54.26
54900;BME280;40801;41.924;25.562;2024-01-30T05:59:38;101660.34;;;2.59;54.15
54900;BME280;40801;41.924;25.562;2024-01-30T06:02:03;101665.75;;;2.66;54.29
54900;BME280;40801;41.924;25.562;2024-01-30T06:04:29;101664.97;;;2.72;54.10
54900;BME280;40801;41.924;25.562;2024-01-30T06:06:54;101668.75;;;2.56;54.07
54900;BME280;40801;41.924;25.562;2024-01-30T06:09:19;101678.31;;;2.78;54.37
54900;BME280;40801;41.924;25.562;2024-01-30T06:11:45;101678.19;;;2.93;53.23
54900;BME280;40801;41.924;25.562;2024-01-30T06:14:10;101676.44;;;2.72;53.72
54900;BME280;40801;41.924;25.562;2024-01-30T06:16:36;101671.94;;;2.73;54.36
54900;BME280;40801;41.924;25.562;2024-01-30T06:19:01;101678.03;;;2.67;54.13
54900;BME280;40801;41.924;25.562;2024-01-30T06:21:27;101679.84;;;2.94;53.50
54900;BME280;40801;41.924;25.562;2024-01-30T06:23:52;101680.72;;;2.67;53.90
54900;BME280;40801;41.924;25.562;2024-01-30T06:26:17;101682.91;;;2.91;53.10
54900;BME280;40801;41.924;25.562;2024-01-30T06:28:43;101682.94;;;3.04;52.93
54900;BME280;40801;41.924;25.562;2024-01-30T06:31:09;101684.19;;;3.08;52.93
54900;BME280;40801;41.924;25.562;2024-01-30T06:33:35;101681.31;;;3.03;52.98
54900;BME280;40801;41.924;25.562;2024-01-30T06:36:00;101685.00;;;3.09;53.14
54900;BME280;40801;41.924;25.562;2024-01-30T06:38:26;101688.50;;;3.09;53.27
54900;BME280;40801;41.924;25.562;2024-01-30T06:40:51;101685.22;;;3.07;53.55
54900;BME280;40801;41.924;25.562;2024-01-30T06:43:16;101677.22;;;3.14;53.62
54900;BME280;40801;41.924;25.562;2024-01-30T06:45:42;101681.38;;;2.82;54.64
54900;BME280;40801;41.924;25.562;2024-01-30T06:48:08;101679.00;;;2.59;55.28
54900;BME280;40801;41.924;25.562;2024-01-30T06:50:33;101685.63;;;2.70;55.03
54900;BME280;40801;41.924;25.562;2024-01-30T06:52:59;101679.22;;;2.99;54.39
54900;BME280;40801;41.924;25.562;2024-01-30T06:55:24;101679.22;;;2.92;54.95
54900;BME280;40801;41.924;25.562;2024-01-30T06:57:49;101689.94;;;2.71;55.53
54900;BME280;40801;41.924;25.562;2024-01-30T07:00:15;101690.28;;;2.96;54.90
54900;BME280;40801;41.924;25.562;2024-01-30T07:02:41;101682.34;;;2.33;56.44
54900;BME280;40801;41.924;25.562;2024-01-30T07:05:07;101684.00;;;2.69;56.03
54900;BME280;40801;41.924;25.562;2024-01-30T07:07:32;101682.25;;;2.55;56.61
54900;BME280;40801;41.924;25.562;2024-01-30T07:09:58;101674.81;;;2.78;56.32
54900;BME280;40801;41.924;25.562;2024-01-30T07:12:23;101677.66;;;2.70;56.29
54900;BME280;40801;41.924;25.562;2024-01-30T07:14:51;101684.81;;;2.69;56.78
54900;BME280;40801;41.924;25.562;2024-01-30T07:17:16;101675.44;;;2.80;56.03
54900;BME280;40801;41.924;25.562;2024-01-30T07:19:42;101681.31;;;2.62;56.52
54900;BME280;40801;41.924;25.562;2024-01-30T07:22:08;101682.38;;;2.74;55.98
54900;BME280;40801;41.924;25.562;2024-01-30T07:24:33;101688.16;;;2.85;56.02
54900;BME280;40801;41.924;25.562;2024-01-30T07:26:59;101689.75;;;2.72;57.04
54900;BME280;40801;41.924;25.562;2024-01-30T07:29:24;101691.25;;;2.88;56.24
54900;BME280;40801;41.924;25.562;2024-01-30T07:31:49;101684.38;;;3.07;55.78
54900;BME280;40801;41.924;25.562;2024-01-30T07:34:15;101688.78;;;3.28;55.54
54900;BME280;40801;41.924;25.562;2024-01-30T07:36:40;101692.59;;;3.12;55.69
54900;BME280;40801;41.924;25.562;2024-01-30T07:39:06;101682.97;;;3.11;55.85
54900;BME280;40801;41.924;25.562;2024-01-30T07:41:31;101695.31;;;3.19;55.34
54900;BME280;40801;41.924;25.562;2024-01-30T07:43:57;101689.00;;;3.33;55.27
54900;BME280;40801;41.924;25.562;2024-01-30T07:46:22;101689.22;;;3.38;55.74
54900;BME280;40801;41.924;25.562;2024-01-30T07:48:48;101694.16;;;3.41;55.59
54900;BME280;40801;41.924;25.562;2024-01-30T07:51:13;101700.88;;;3.30;56.36
54900;BME280;40801;41.924;25.562;2024-01-30T07:53:39;101713.81;;;3.33;55.35
54900;BME280;40801;41.924;25.562;2024-01-30T07:56:05;101704.28;;;3.11;56.51
54900;BME280;40801;41.924;25.562;2024-01-30T07:58:30;101707.88;;;3.31;56.02
54900;BME280;40801;41.924;25.562;2024-01-30T08:00:56;101709.38;;;3.47;55.81
54900;BME280;40801;41.924;25.562;2024-01-30T08:03:24;101711.84;;;3.55;55.97
54900;BME280;40801;41.924;25.562;2024-01-30T08:05:49;101710.00;;;3.56;56.22
54900;BME280;40801;41.924;25.562;2024-01-30T08:08:15;101718.16;;;3.41;56.21
54900;BME280;40801;41.924;25.562;2024-01-30T08:10:40;101710.22;;;3.67;55.69
54900;BME280;40801;41.924;25.562;2024-01-30T08:13:06;101714.53;;;3.62;55.74
54900;BME280;40801;41.924;25.562;2024-01-30T08:15:31;101715.78;;;3.72;55.62
54900;BME280;40801;41.924;25.562;2024-01-30T08:17:57;101722.78;;;3.80;55.85
54900;BME280;40801;41.924;25.562;2024-01-30T08:20:24;101720.69;;;3.69;55.48
54900;BME280;40801;41.924;25.562;2024-01-30T08:22:50;101723.56;;;3.74;55.96
54900;BME280;40801;41.924;25.562;2024-01-30T08:25:15;101734.66;;;3.64;56.17
54900;BME280;40801;41.924;25.562;2024-01-30T08:27:41;101724.03;;;3.78;55.93
54900;BME280;40801;41.924;25.562;2024-01-30T08:30:07;101726.50;;;3.79;55.85
54900;BME280;40801;41.924;25.562;2024-01-30T08:32:32;101737.72;;;3.68;56.24
54900;BME280;40801;41.924;25.562;2024-01-30T08:34:58;101736.50;;;3.64;55.81
54900;BME280;40801;41.924;25.562;2024-01-30T08:37:24;101735.31;;;3.80;55.67
54900;BME280;40801;41.924;25.562;2024-01-30T08:39:49;101744.88;;;3.54;56.14
54900;BME280;40801;41.924;25.562;2024-01-30T08:42:15;101732.38;;;3.61;56.01
54900;BME280;40801;41.924;25.562;2024-01-30T08:44:41;101738.03;;;3.38;57.40
54900;BME280;40801;41.924;25.562;2024-01-30T08:47:06;101727.38;;;3.38;56.75
54900;BME280;40801;41.924;25.562;2024-01-30T08:49:31;101732.34;;;3.48;56.45
54900;BME280;40801;41.924;25.562;2024-01-30T08:51:57;101730.13;;;3.58;56.46
54900;BME280;40801;41.924;25.562;2024-01-30T08:54:23;101726.63;;;3.64;56.48
54900;BME280;40801;41.924;25.562;2024-01-30T08:56:49;101727.56;;;3.37;56.69
54900;BME280;40801;41.924;25.562;2024-01-30T08:59:14;101728.06;;;3.54;55.88
54900;BME280;40801;41.924;25.562;2024-01-30T09:01:40;101721.72;;;3.68;55.30
54900;BME280;40801;41.924;25.562;2024-01-30T09:04:05;101718.69;;;3.78;55.79
54900;BME280;40801;41.924;25.562;2024-01-30T09:06:31;101716.66;;;3.99;55.23
54900;BME280;40801;41.924;25.562;2024-01-30T09:08:56;101700.00;;;3.78;54.88
54900;BME280;40801;41.924;25.562;2024-01-30T09:11:23;101707.16;;;3.64;55.99
54900;BME280;40801;41.924;25.562;2024-01-30T09:13:48;101697.75;;;3.94;55.02
54900;BME280;40801;41.924;25.562;2024-01-30T09:16:14;101696.31;;;3.92;55.12
54900;BME280;40801;41.924;25.562;2024-01-30T09:18:41;101690.97;;;3.92;55.34
54900;BME280;40801;41.924;25.562;2024-01-30T09:21:07;101686.47;;;4.06;54.64
54900;BME280;40801;41.924;25.562;2024-01-30T09:23:32;101685.44;;;4.26;54.10
54900;BME280;40801;41.924;25.562;2024-01-30T09:25:58;101680.50;;;4.30;54.00
54900;BME280;40801;41.924;25.562;2024-01-30T09:28:24;101691.56;;;3.74;54.54
54900;BME280;40801;41.924;25.562;2024-01-30T09:30:49;101687.91;;;4.08;54.33
54900;BME280;40801;41.924;25.562;2024-01-30T09:33:15;101688.53;;;4.23;53.36
54900;BME280;40801;41.924;25.562;2024-01-30T09:35:40;101690.16;;;4.24;53.00
54900;BME280;40801;41.924;25.562;2024-01-30T09:38:06;101685.03;;;4.10;53.67
54900;BME280;40801;41.924;25.562;2024-01-30T09:40:31;101669.63;;;4.25;52.98
54900;BME280;40801;41.924;25.562;2024-01-30T09:42:58;101670.84;;;4.35;53.00
54900;BME280;40801;41.924;25.562;2024-01-30T09:45:25;101663.44;;;4.44;52.59
54900;BME280;40801;41.924;25.562;2024-01-30T09:47:51;101671.25;;;4.39;52.74
54900;BME280;40801;41.924;25.562;2024-01-30T09:50:18;101668.19;;;4.35;52.62
54900;BME280;40801;41.924;25.562;2024-01-30T09:52:47;101654.97;;;4.60;52.31
54900;BME280;40801;41.924;25.562;2024-01-30T09:55:13;101665.44;;;4.62;52.41
54900;BME280;40801;41.924;25.562;2024-01-30T09:57:39;101657.63;;;4.67;51.52
54900;BME280;40801;41.924;25.562;2024-01-30T10:00:06;101665.06;;;4.65;51.81
54900;BME280;40801;41.924;25.562;2024-01-30T10:02:37;101657.44;;;4.62;51.39
54900;BME280;40801;41.924;25.562;2024-01-30T10:05:02;101656.81;;;4.66;51.87
54900;BME280;40801;41.924;25.562;2024-01-30T10:07:28;101661.53;;;4.71;51.48
54900;BME280;40801;41.924;25.562;2024-01-30T10:09:54;101663.84;;;4.28;51.46
54900;BME280;40801;41.924;25.562;2024-01-30T10:12:23;101662.63;;;4.44;50.94
54900;BME280;40801;41.924;25.562;2024-01-30T10:14:48;101650.50;;;4.41;51.33
54900;BME280;40801;41.924;25.562;2024-01-30T10:17:14;101652.97;;;4.36;51.43
54900;BME280;40801;41.924;25.562;2024-01-30T10:19:41;101644.28;;;4.54;51.13
54900;BME280;40801;41.924;25.562;2024-01-30T10:22:06;101644.13;;;4.29;51.76
54900;BME280;40801;41.924;25.562;2024-01-30T10:24:35;101644.50;;;4.59;51.23
54900;BME280;40801;41.924;25.562;2024-01-30T10:27:01;101638.72;;;4.62;51.19
54900;BME280;40801;41.924;25.562;2024-01-30T10:29:27;101639.34;;;4.71;50.74
54900;BME280;40801;41.924;25.562;2024-01-30T10:32:03;101635.22;;;4.68;50.10
54900;BME280;40801;41.924;25.562;2024-01-30T10:34:29;101637.66;;;4.76;50.33
54900;BME280;40801;41.924;25.562;2024-01-30T10:37:13;101640.88;;;4.98;48.71
54900;BME280;40801;41.924;25.562;2024-01-30T10:39:42;101642.69;;;5.04;48.61
54900;BME280;40801;41.924;25.562;2024-01-30T10:42:15;101632.72;;;4.80;48.98
54900;BME280;40801;41.924;25.562;2024-01-30T10:45:11;101637.59;;;4.89;48.78
54900;BME280;40801;41.924;25.562;2024-01-30T10:47:52;101636.78;;;4.95;48.40
54900;BME280;40801;41.924;25.562;2024-01-30T10:50:18;101645.34;;;5.11;48.10
54900;BME280;40801;41.924;25.562;2024-01-30T10:52:44;101636.44;;;5.17;48.06
54900;BME280;40801;41.924;25.562;2024-01-30T10:55:10;101639.72;;;5.25;47.22
54900;BME280;40801;41.924;25.562;2024-01-30T10:57:37;101633.25;;;5.02;48.21
54900;BME280;40801;41.924;25.562;2024-01-30T11:00:05;101629.38;;;4.97;48.31
54900;BME280;40801;41.924;25.562;2024-01-30T11:02:37;101640.19;;;5.09;47.72
54900;BME280;40801;41.924;25.562;2024-01-30T11:05:04;101648.63;;;5.13;47.63
54900;BME280;40801;41.924;25.562;2024-01-30T11:07:30;101640.38;;;5.14;47.69
54900;BME280;40801;41.924;25.562;2024-01-30T11:12:24;101627.56;;;5.29;47.39
54900;BME280;40801;41.924;25.562;2024-01-30T11:15:07;101625.38;;;5.13;47.07
54900;BME280;40801;41.924;25.562;2024-01-30T11:20:21;101619.34;;;5.24;46.59
54900;BME280;40801;41.924;25.562;2024-01-30T11:22:49;101621.25;;;5.11;47.01
54900;BME280;40801;41.924;25.562;2024-01-30T11:25:17;101611.13;;;5.26;46.85
54900;BME280;40801;41.924;25.562;2024-01-30T11:27:43;101598.94;;;5.30;46.81
54900;BME280;40801;41.924;25.562;2024-01-30T11:30:09;101603.91;;;5.26;46.88
54900;BME280;40801;41.924;25.562;2024-01-30T11:32:35;101602.97;;;5.08;47.49
54900;BME280;40801;41.924;25.562;2024-01-30T11:35:03;101595.47;;;5.29;46.15
54900;BME280;40801;41.924;25.562;2024-01-30T11:37:30;101599.34;;;4.89;46.91
54900;BME280;40801;41.924;25.562;2024-01-30T11:39:56;101591.06;;;5.04;46.89
54900;BME280;40801;41.924;25.562;2024-01-30T11:42:23;101588.47;;;4.84;47.48
54900;BME280;40801;41.924;25.562;2024-01-30T11:44:50;101578.91;;;5.08;47.15
54900;BME280;40801;41.924;25.562;2024-01-30T11:47:16;101585.91;;;5.09;47.10
54900;BME280;40801;41.924;25.562;2024-01-30T11:49:43;101587.19;;;5.00;47.15
54900;BME280;40801;41.924;25.562;2024-01-30T11:52:09;101582.34;;;5.21;47.19
54900;BME280;40801;41.924;25.562;2024-01-30T11:54:34;101582.78;;;5.12;47.41
54900;BME280;40801;41.924;25.562;2024-01-30T11:57:00;101577.53;;;5.30;46.95
54900;BME280;40801;41.924;25.562;2024-01-30T11:59:25;101582.53;;;5.20;46.83
54900;BME280;40801;41.924;25.562;2024-01-30T12:01:51;101585.34;;;5.00;47.41
54900;BME280;40801;41.924;25.562;2024-01-30T12:04:17;101573.59;;;5.01;47.10
54900;BME280;40801;41.924;25.562;2024-01-30T12:06:43;101572.47;;;4.77;47.81
54900;BME280;40801;41.924;25.562;2024-01-30T12:09:09;101572.41;;;4.90;47.58
54900;BME280;40801;41.924;25.562;2024-01-30T12:11:46;101571.88;;;5.13;46.96
54900;BME280;40801;41.924;25.562;2024-01-30T12:14:12;101577.00;;;5.15;46.96
54900;BME280;40801;41.924;25.562;2024-01-30T12:16:38;101557.16;;;4.97;47.06
54900;BME280;40801;41.924;25.562;2024-01-30T12:19:04;101557.31;;;5.09;46.52
54900;BME280;40801;41.924;25.562;2024-01-30T12:21:30;101553.16;;;5.13;46.86
54900;BME280;40801;41.924;25.562;2024-01-30T12:23:59;101549.50;;;5.39;46.44
54900;BME280;40801;41.924;25.562;2024-01-30T12:26:25;101542.28;;;5.40;46.24
54900;BME280;40801;41.924;25.562;2024-01-30T12:28:54;101543.69;;;5.42;46.30
54900;BME280;40801;41.924;25.562;2024-01-30T12:31:27;101555.84;;;5.70;45.68
54900;BME280;40801;41.924;25.562;2024-01-30T12:33:53;101543.78;;;5.60;45.47
54900;BME280;40801;41.924;25.562;2024-01-30T12:36:20;101530.84;;;5.57;45.53
54900;BME280;40801;41.924;25.562;2024-01-30T12:38:46;101530.25;;;5.49;45.96
54900;BME280;40801;41.924;25.562;2024-01-30T12:41:11;101548.19;;;5.17;46.14
54900;BME280;40801;41.924;25.562;2024-01-30T12:43:36;101545.72;;;5.47;46.10
54900;BME280;40801;41.924;25.562;2024-01-30T12:46:02;101544.06;;;5.52;45.78
54900;BME280;40801;41.924;25.562;2024-01-30T12:48:28;101546.69;;;5.27;46.02
54900;BME280;40801;41.924;25.562;2024-01-30T12:50:55;101543.88;;;5.16;45.69